Time;durP1;ratioP1;P1;durP2;ratioP2;P2;SDS_P1;SDS_P2;PMS_P1;PMS_P2;Temp;Humidity;BMP_temperature;BMP_pressure;BME280_temperature;BME280_humidity;BME280_pressure;Samples;Min_cycle;Max_cycle;Signal;HPM_P1;HPM_P2
2021/04/03 00:00:55;;;;;;;;;;;;;;;-1.54;100.00;98696.80;1832375;78;20215;-72
2021/04/03 00:03:24;;;;;;;;;;;;;;;-1.44;100.00;98699.86;1832153;78;21194;-71
2021/04/03 00:05:52;;;;;;;;;;;;;;;-1.49;100.00;98701.44;1832303;78;20306;-71
2021/04/03 00:08:26;;;;;;;;;;;;;;;-1.46;100.00;98701.88;1832334;78;20119;-71
2021/04/03 00:10:57;;;;;;;;;;;;;;;-1.42;100.00;98701.80;1832310;78;20298;-71
2021/04/03 00:13:28;;;;;;;;;;;;;;;-1.44;100.00;98700.38;1832334;78;20242;-72
2021/04/03 00:15:57;;;;;;;;;;;;;;;-1.47;100.00;98703.38;1832333;78;21665;-72
2021/04/03 00:18:24;;;;;;;;;;;;;;;-1.57;100.00;98695.84;1832235;78;20206;-72
2021/04/03 00:20:52;;;;;;;;;;;;;;;-1.64;100.00;98700.27;1832293;78;20163;-72
2021/04/03 00:23:21;;;;;;;;;;;;;;;-1.73;100.00;98697.01;1832208;78;20788;-72
2021/04/03 00:25:49;;;;;;;;;;;;;;;-1.85;100.00;98697.25;1811482;78;20226;-72
2021/04/03 00:28:17;;;;;;;;;;;;;;;-1.92;100.00;98699.84;1832312;78;21364;-72
2021/04/03 00:30:45;;;;;;;;;;;;;;;-1.98;100.00;98694.86;1832206;78;20215;-72
2021/04/03 00:33:16;;;;;;;;;;;;;;;-1.82;100.00;98698.17;1832281;78;20242;-72
2021/04/03 00:35:46;;;;;;;;;;;;;;;-1.72;100.00;98703.38;1832428;78;20573;-72
2021/04/03 00:38:14;;;;;;;;;;;;;;;-1.69;100.00;98701.36;1832380;78;20234;-72
2021/04/03 00:40:48;;;;;;;;;;;;;;;-1.61;100.00;98703.84;1832301;78;21430;-72
2021/04/03 00:43:18;;;;;;;;;;;;;;;-1.65;100.00;98700.78;1833617;77;20502;-73
2021/04/03 00:45:47;;;;;;;;;;;;;;;-1.70;100.00;98704.50;1841991;78;20142;-72
2021/04/03 00:48:15;;;;;;;;;;;;;;;-1.72;100.00;98707.31;1841977;78;20513;-73
2021/04/03 00:50:46;;;;;;;;;;;;;;;-1.70;100.00;98707.64;1842068;78;20488;-72
2021/04/03 00:53:18;;;;;;;;;;;;;;;-1.73;100.00;98706.22;1842027;78;22240;-72
2021/04/03 00:55:48;;;;;;;;;;;;;;;-1.83;100.00;98705.77;1841207;78;20497;-72
2021/04/03 00:58:17;;;;;;;;;;;;;;;-1.93;100.00;98710.06;1814044;78;20218;-72
2021/04/03 01:00:48;;;;;;;;;;;;;;;-1.95;100.00;98702.86;1842340;78;20142;-73
2021/04/03 01:03:19;;;;;;;;;;;;;;;-1.96;100.00;98705.16;1842060;78;20254;-73
2021/04/03 01:05:47;;;;;;;;;;;;;;;-1.99;100.00;98698.47;1842058;78;22301;-72
2021/04/03 01:08:16;;;;;;;;;;;;;;;-2.08;100.00;98689.14;1841827;78;20222;-72
2021/04/03 01:10:47;;;;;;;;;;;;;;;-2.14;100.00;98693.84;1841909;78;20222;-73
2021/04/03 01:13:49;;;;;;;;;;;;;;;-2.18;100.00;98692.59;1841970;78;20147;-72
2021/04/03 01:16:38;;;;;;;;;;;;;;;-2.14;100.00;98695.16;1841914;78;20238;-73
2021/04/03 01:19:27;;;;;;;;;;;;;;;-2.08;100.00;98700.14;1841946;78;21260;-73
2021/04/03 01:22:26;;;;;;;;;;;;;;;-2.10;100.00;98693.77;1727344;83;20257;-72
2021/04/03 01:25:31;;;;;;;;;;;;;;;-2.00;100.00;98702.12;1728278;83;20241;-73
2021/04/03 01:28:31;;;;;;;;;;;;;;;-1.97;100.00;98699.09;1728281;83;20253;-71
2021/04/03 01:30:59;;;;;;;;;;;;;;;-2.02;100.00;98690.17;1728332;83;20296;-71
2021/04/03 01:33:27;;;;;;;;;;;;;;;-2.16;100.00;98689.27;1728322;83;22225;-72
2021/04/03 01:36:04;;;;;;;;;;;;;;;-2.14;100.00;98693.03;1728186;83;20161;-72
2021/04/03 01:38:36;;;;;;;;;;;;;;;-2.10;100.00;98695.59;1728252;83;20169;-72
2021/04/03 01:41:06;;;;;;;;;;;;;;;-2.01;100.00;98691.30;1728337;83;20336;-72
2021/04/03 01:43:39;;;;;;;;;;;;;;;-1.92;100.00;98695.08;1726513;83;20831;-72
2021/04/03 01:46:08;;;;;;;;;;;;;;;-1.84;100.00;98697.55;1697707;83;21280;-73
2021/04/03 01:48:37;;;;;;;;;;;;;;;-1.88;100.00;98698.96;1721722;83;20662;-73
2021/04/03 01:51:05;;;;;;;;;;;;;;;-2.10;100.00;98692.97;1721861;83;20218;-73
2021/04/03 01:53:34;;;;;;;;;;;;;;;-2.29;100.00;98693.14;1674842;83;20257;-73
2021/04/03 01:56:06;;;;;;;;;;;;;;;-2.52;100.00;98683.69;1721693;83;20259;-73
2021/04/03 01:58:35;;;;;;;;;;;;;;;-2.69;100.00;98691.02;1777822;77;21287;-73
2021/04/03 02:01:05;;;;;;;;;;;;;;;-2.78;100.00;98691.34;1843606;78;20218;-73
2021/04/03 02:03:34;;;;;;;;;;;;;;;-2.73;100.00;98695.02;1843500;78;20234;-73
2021/04/03 02:06:04;;;;;;;;;;;;;;;-2.65;100.00;98694.06;1843613;78;20115;-73
2021/04/03 02:08:41;;;;;;;;;;;;;;;-2.69;100.00;98689.71;1841853;78;20537;-73
2021/04/03 02:11:14;;;;;;;;;;;;;;;-2.73;100.00;98686.33;1842215;78;21351;-73
2021/04/03 02:13:43;;;;;;;;;;;;;;;-2.82;100.00;98681.22;1843461;78;20115;-73
2021/04/03 02:16:12;;;;;;;;;;;;;;;-2.89;100.00;98684.77;1843701;77;20219;-73
2021/04/03 02:18:41;;;;;;;;;;;;;;;-2.87;100.00;98683.57;1843677;78;20564;-73
2021/04/03 02:21:10;;;;;;;;;;;;;;;-2.83;100.00;98680.89;1843692;78;20289;-73
2021/04/03 02:23:39;;;;;;;;;;;;;;;-2.87;100.00;98678.83;1843421;78;22265;-73
2021/04/03 02:26:09;;;;;;;;;;;;;;;-2.93;100.00;98688.78;1843598;78;20222;-73
2021/04/03 02:28:38;;;;;;;;;;;;;;;-2.97;100.00;98683.59;1843622;78;20155;-73
2021/04/03 02:31:05;;;;;;;;;;;;;;;-3.03;100.00;98683.84;1843645;77;20230;-73
2021/04/03 02:33:35;;;;;;;;;;;;;;;-3.06;100.00;98689.48;1843086;78;20224;-73
2021/04/03 02:36:03;;;;;;;;;;;;;;;-3.03;100.00;98691.72;1843630;77;21193;-73
2021/04/03 02:38:32;;;;;;;;;;;;;;;-2.96;100.00;98691.28;1843580;77;20245;-73
2021/04/03 02:41:05;;;;;;;;;;;;;;;-2.76;100.00;98683.58;1843024;78;20111;-73
2021/04/03 02:43:56;;;;;;;;;;;;;;;-2.67;100.00;98680.30;1842963;77;20246;-73
2021/04/03 02:46:36;;;;;;;;;;;;;;;-2.80;100.00;98680.50;1832184;78;20222;-73
2021/04/03 02:49:07;;;;;;;;;;;;;;;-2.89;100.00;98683.45;1832168;78;21811;-73
2021/04/03 02:51:41;;;;;;;;;;;;;;;-2.97;100.00;98688.33;1832163;78;20159;-73
2021/04/03 02:54:11;;;;;;;;;;;;;;;-3.05;100.00;98693.72;1832152;78;20246;-73
2021/04/03 02:56:41;;;;;;;;;;;;;;;-3.07;100.00;98687.33;1811711;78;20148;-73
2021/04/03 02:59:21;;;;;;;;;;;;;;;-3.09;100.00;98689.33;1811402;78;20512;-73
2021/04/03 03:01:50;;;;;;;;;;;;;;;-3.08;100.00;98689.66;1831822;78;22450;-73
2021/04/03 03:04:18;;;;;;;;;;;;;;;-3.11;100.00;98691.82;1832099;78;20214;-73
2021/04/03 03:06:46;;;;;;;;;;;;;;;-3.12;100.00;98680.52;1832218;78;20147;-73
2021/04/03 03:09:18;;;;;;;;;;;;;;;-3.11;100.00;98679.53;1832152;78;20786;-73
2021/04/03 03:11:49;;;;;;;;;;;;;;;-3.19;100.00;98680.14;1832273;78;20220;-71
2021/04/03 03:14:18;;;;;;;;;;;;;;;-3.21;100.00;98676.38;1832195;78;21190;-73
2021/04/03 03:16:49;;;;;;;;;;;;;;;-3.19;100.00;98678.32;1832104;78;20288;-73
2021/04/03 03:19:19;;;;;;;;;;;;;;;-3.23;100.00;98677.09;1832180;78;20238;-72
2021/04/03 03:21:49;;;;;;;;;;;;;;;-3.26;100.00;98675.65;1832161;78;20139;-72
2021/04/03 03:24:20;;;;;;;;;;;;;;;-3.20;100.00;98678.02;1832453;78;20230;-73
2021/04/03 03:26:48;;;;;;;;;;;;;;;-3.17;100.00;98676.33;1832380;78;22122;-72
2021/04/03 03:29:17;;;;;;;;;;;;;;;-3.15;100.00;98672.22;1832294;78;20593;-73
2021/04/03 03:31:47;;;;;;;;;;;;;;;-3.14;100.00;98675.95;1832293;78;20238;-72
2021/04/03 03:34:15;;;;;;;;;;;;;;;-3.15;100.00;98684.83;1832294;78;20226;-72
2021/04/03 03:36:45;;;;;;;;;;;;;;;-3.23;100.00;98675.78;1832000;78;20211;-72
2021/04/03 03:39:13;;;;;;;;;;;;;;;-3.33;100.00;98683.11;1832270;78;21383;-72
2021/04/03 03:41:41;;;;;;;;;;;;;;;-3.42;100.00;98682.43;1832352;78;20497;-72
2021/04/03 03:44:10;;;;;;;;;;;;;;;-3.41;100.00;98685.86;1832995;78;20501;-72
2021/04/03 03:46:38;;;;;;;;;;;;;;;-3.35;100.00;98678.06;1838119;78;20217;-72
2021/04/03 03:49:07;;;;;;;;;;;;;;;-3.36;100.00;98679.55;1838289;78;20489;-72
2021/04/03 03:51:34;;;;;;;;;;;;;;;-3.33;100.00;98680.48;1838308;78;21388;-72
2021/04/03 03:54:04;;;;;;;;;;;;;;;-3.26;100.00;98681.38;1837266;78;20138;-73
2021/04/03 03:56:35;;;;;;;;;;;;;;;-3.06;100.00;98681.60;1847045;77;20221;-72
2021/04/03 03:59:02;;;;;;;;;;;;;;;-2.87;100.00;98675.69;1857968;77;20225;-72
2021/04/03 04:01:32;;;;;;;;;;;;;;;-2.74;100.00;98678.95;1858015;77;20284;-72
2021/04/03 04:04:01;;;;;;;;;;;;;;;-2.64;100.00;98679.95;1858008;77;21331;-72
2021/04/03 04:06:30;;;;;;;;;;;;;;;-2.55;100.00;98683.23;1858058;77;20173;-72
2021/04/03 04:09:02;;;;;;;;;;;;;;;-2.55;100.00;98682.73;1858166;77;20107;-72
2021/04/03 04:11:29;;;;;;;;;;;;;;;-2.56;100.00;98681.11;1827341;77;20364;-72
2021/04/03 04:13:58;;;;;;;;;;;;;;;-2.49;100.00;98679.86;1857574;77;20237;-72
2021/04/03 04:16:31;;;;;;;;;;;;;;;-2.29;100.00;98685.25;1857443;77;21276;-72
2021/04/03 04:19:00;;;;;;;;;;;;;;;-2.19;100.00;98687.03;1857917;77;20233;-72
2021/04/03 04:21:28;;;;;;;;;;;;;;;-1.95;100.00;98688.39;1858048;77;20305;-72
2021/04/03 04:23:56;;;;;;;;;;;;;;;-1.65;100.00;98682.36;1858047;77;20237;-72
2021/04/03 04:26:24;;;;;;;;;;;;;;;-1.36;100.00;98677.30;1858004;77;20139;-72
2021/04/03 04:28:54;;;;;;;;;;;;;;;-0.95;100.00;98673.76;1858030;77;20742;-73
2021/04/03 04:31:25;;;;;;;;;;;;;;;-0.52;100.00;98673.35;1857776;77;20142;-73
2021/04/03 04:33:54;;;;;;;;;;;;;;;-0.65;100.00;98682.08;1827546;77;20246;-73
2021/04/03 04:36:22;;;;;;;;;;;;;;;-0.68;100.00;98679.86;1827316;77;20222;-73
2021/04/03 04:38:51;;;;;;;;;;;;;;;-0.12;100.00;98675.97;1858077;77;20210;-73
2021/04/03 04:41:20;;;;;;;;;;;;;;;0.50;100.00;98678.21;1858046;77;22111;-73
2021/04/03 04:43:49;;;;;;;;;;;;;;;0.93;100.00;98675.77;1857912;77;20324;-73
2021/04/03 04:46:17;;;;;;;;;;;;;;;1.35;100.00;98681.37;1857901;77;20205;-73
2021/04/03 04:48:47;;;;;;;;;;;;;;;1.57;100.00;98686.26;1857430;77;20568;-72
2021/04/03 04:51:16;;;;;;;;;;;;;;;1.59;100.00;98689.50;1857357;77;20241;-72
2021/04/03 04:53:46;;;;;;;;;;;;;;;1.41;100.00;98696.36;1857999;77;21190;-72
2021/04/03 04:56:16;;;;;;;;;;;;;;;1.42;100.00;98694.03;1857907;77;20485;-72
2021/04/03 04:58:44;;;;;;;;;;;;;;;1.49;100.00;98686.02;1853292;77;20191;-72
2021/04/03 05:01:13;;;;;;;;;;;;;;;1.50;100.00;98692.95;1838089;78;20592;-71
2021/04/03 05:03:43;;;;;;;;;;;;;;;1.55;100.00;98691.78;1837765;78;20236;-71
2021/04/03 05:06:10;;;;;;;;;;;;;;;1.52;100.00;98700.65;1838179;78;21196;-70
2021/04/03 05:08:38;;;;;;;;;;;;;;;1.47;100.00;98701.29;1838164;77;20474;-70
2021/04/03 05:11:05;;;;;;;;;;;;;;;1.52;100.00;98705.45;1838179;78;20263;-70
2021/04/03 05:13:33;;;;;;;;;;;;;;;1.57;100.00;98713.55;1838117;78;20170;-71
2021/04/03 05:16:03;;;;;;;;;;;;;;;1.75;100.00;98715.94;1838131;78;20252;-71
2021/04/03 05:18:30;;;;;;;;;;;;;;;1.88;100.00;98719.26;1838094;78;21474;-70
2021/04/03 05:20:58;;;;;;;;;;;;;;;2.00;100.00;98715.39;1838078;78;20162;-70
2021/04/03 05:23:26;;;;;;;;;;;;;;;2.00;100.00;98727.82;1838104;78;20187;-71
2021/04/03 05:25:54;;;;;;;;;;;;;;;2.18;100.00;98719.92;1838052;77;20214;-70
2021/04/03 05:28:21;;;;;;;;;;;;;;;2.40;100.00;98729.56;1838137;78;20229;-69
2021/04/03 05:30:49;;;;;;;;;;;;;;;2.37;100.00;98729.98;1838159;78;22353;-70
2021/04/03 05:33:16;;;;;;;;;;;;;;;2.41;100.00;98734.34;1837658;78;20626;-70
2021/04/03 05:35:44;;;;;;;;;;;;;;;2.52;100.00;98733.59;1836075;78;20134;-70
2021/04/03 05:38:13;;;;;;;;;;;;;;;2.69;100.00;98739.90;1836911;78;20234;-70
2021/04/03 05:40:41;;;;;;;;;;;;;;;2.84;100.00;98729.44;1807547;78;20266;-70
2021/04/03 05:43:10;;;;;;;;;;;;;;;2.84;100.00;98735.53;1837185;78;20552;-70
2021/04/03 05:45:38;;;;;;;;;;;;;;;2.73;100.00;98749.56;1834349;78;20644;-70
2021/04/03 05:48:07;;;;;;;;;;;;;;;2.63;100.00;98747.95;1831537;78;20218;-69
2021/04/03 05:50:37;;;;;;;;;;;;;;;2.89;100.00;98747.63;1831781;78;20278;-70
2021/04/03 05:53:05;;;;;;;;;;;;;;;3.03;100.00;98748.77;1831380;78;20219;-70
2021/04/03 05:55:33;;;;;;;;;;;;;;;3.07;100.00;98752.61;1831421;78;21428;-69
2021/04/03 05:58:00;;;;;;;;;;;;;;;2.98;100.00;98748.11;1831376;78;20278;-70
2021/04/03 06:00:28;;;;;;;;;;;;;;;2.98;100.00;98754.22;1831553;78;20214;-70
2021/04/03 06:02:57;;;;;;;;;;;;;;;2.98;100.00;98754.74;1831595;78;20290;-71
2021/04/03 06:05:25;;;;;;;;;;;;;;;3.07;100.00;98756.58;1831505;78;20215;-71
2021/04/03 06:07:57;;;;;;;;;;;;;;;3.33;100.00;98764.67;1831381;78;21209;-70
2021/04/03 06:10:26;;;;;;;;;;;;;;;3.44;100.00;98765.23;1831377;78;20238;-71
2021/04/03 06:12:54;;;;;;;;;;;;;;;3.56;100.00;98773.23;1831918;78;20242;-70
2021/04/03 06:15:30;;;;;;;;;;;;;;;3.55;99.40;98777.74;1831830;78;20715;-69
2021/04/03 06:18:00;;;;;;;;;;;;;;;3.44;100.00;98776.66;1831133;78;20293;-69
2021/04/03 06:20:30;;;;;;;;;;;;;;;3.51;100.00;98785.86;1831664;78;21349;-69
2021/04/03 06:22:59;;;;;;;;;;;;;;;3.53;100.00;98786.44;1830804;78;20514;-70
2021/04/03 06:25:28;;;;;;;;;;;;;;;3.58;100.00;98790.55;1831628;78;20269;-70
2021/04/03 06:28:11;;;;;;;;;;;;;;;3.74;100.00;98795.70;1831433;78;20525;-70
2021/04/03 06:30:41;;;;;;;;;;;;;;;3.89;100.00;98799.25;1810897;78;20270;-70
2021/04/03 06:33:17;;;;;;;;;;;;;;;4.05;100.00;98797.79;1830434;78;22488;-71
2021/04/03 06:36:05;;;;;;;;;;;;;;;4.14;100.00;98792.93;1830478;78;20306;-71
2021/04/03 06:38:34;;;;;;;;;;;;;;;4.28;100.00;98795.13;1830510;78;20143;-71
2021/04/03 06:41:21;;;;;;;;;;;;;;;4.48;100.00;98801.44;1830652;78;20285;-71
2021/04/03 06:44:29;;;;;;;;;;;;;;;4.60;100.00;98803.27;1830261;78;20230;-71
2021/04/03 06:46:57;;;;;;;;;;;;;;;4.96;97.92;98804.02;1670164;84;21446;-71
2021/04/03 06:49:26;;;;;;;;;;;;;;;5.03;96.83;98808.16;1671342;85;20578;-70
2021/04/03 06:51:57;;;;;;;;;;;;;;;5.24;97.09;98808.05;1695060;83;20581;-71
2021/04/03 06:54:24;;;;;;;;;;;;;;;5.07;87.40;98813.80;1671739;85;20248;-71
2021/04/03 06:56:55;;;;;;;;;;;;;;;5.16;88.88;98813.72;1672253;85;20332;-71
2021/04/03 06:59:24;;;;;;;;;;;;;;;5.19;91.96;98817.77;1703443;83;22247;-70
2021/04/03 07:01:55;;;;;;;;;;;;;;;5.23;87.77;98825.04;1700006;84;20243;-72
2021/04/03 07:04:28;;;;;;;;;;;;;;;5.20;92.49;98824.19;1700396;84;20259;-71
2021/04/03 07:06:56;;;;;;;;;;;;;;;5.25;92.16;98824.81;1699445;84;20274;-71
2021/04/03 07:09:24;;;;;;;;;;;;;;;5.18;94.22;98826.80;1700554;84;20514;-71
2021/04/03 07:11:53;;;;;;;;;;;;;;;5.38;95.85;98825.84;1700055;84;22177;-70
2021/04/03 07:14:24;;;;;;;;;;;;;;;5.33;96.17;98829.22;1700477;84;20294;-71
2021/04/03 07:16:52;;;;;;;;;;;;;;;5.35;96.97;98826.33;1709599;81;20377;-71
2021/04/03 07:19:27;;;;;;;;;;;;;;;5.62;93.38;98831.89;1766127;81;20294;-71
2021/04/03 07:21:50;;;;;;;;;;;;;;;5.86;90.52;98821.13;1766428;80;20263;-71
2021/04/03 07:24:18;;;;;;;;;;;;;;;5.83;83.58;98833.06;1765736;81;22380;-71
2021/04/03 07:26:48;;;;;;;;;;;;;;;5.69;84.87;98837.88;1766256;81;20160;-71
2021/04/03 07:29:49;;;;;;;;;;;;;;;5.76;90.57;98835.87;1765898;81;20204;-71
2021/04/03 07:32:39;;;;;;;;;;;;;;;6.07;89.64;98832.94;1762264;81;20561;-71
2021/04/03 07:35:18;;;;;;;;;;;;;;;6.30;85.77;98838.12;1766077;81;20661;-70
2021/04/03 07:37:48;;;;;;;;;;;;;;;6.42;90.81;98836.70;1765907;80;22116;-71
2021/04/03 07:40:27;;;;;;;;;;;;;;;6.51;84.55;98840.55;1766245;81;20267;-70
2021/04/03 07:42:54;;;;;;;;;;;;;;;6.61;86.17;98837.22;1765805;81;20307;-70
2021/04/03 07:45:33;;;;;;;;;;;;;;;6.77;87.33;98834.25;1765410;80;20391;-70
2021/04/03 07:48:14;;;;;;;;;;;;;;;6.82;79.03;98830.32;1763674;81;20270;-70
2021/04/03 07:50:49;;;;;;;;;;;;;;;6.97;81.17;98831.04;1763394;80;21463;-71
2021/04/03 07:53:46;;;;;;;;;;;;;;;7.06;74.22;98825.56;1765478;80;20648;-71
2021/04/03 07:56:15;;;;;;;;;;;;;;;7.11;75.95;98830.95;1763380;81;20199;-68
2021/04/03 07:58:50;;;;;;;;;;;;;;;7.32;74.70;98829.31;1774501;80;20242;-71
2021/04/03 08:01:20;;;;;;;;;;;;;;;7.53;71.21;98838.90;1732506;82;20305;-72
2021/04/03 08:03:58;;;;;;;;;;;;;;;7.50;70.06;98837.00;1733144;81;21154;-70
2021/04/03 08:06:36;;;;;;;;;;;;;;;7.85;69.29;98839.75;1733569;82;20246;-72
2021/04/03 08:09:11;;;;;;;;;;;;;;;7.95;69.47;98849.72;1708472;82;20238;-71
2021/04/03 08:11:39;;;;;;;;;;;;;;;7.82;68.10;98837.59;1733162;82;20238;-71
2021/04/03 08:14:10;;;;;;;;;;;;;;;7.75;64.05;98847.67;1747215;81;20256;-72
2021/04/03 08:16:46;;;;;;;;;;;;;;;7.53;62.85;98842.37;1763576;81;21206;-71
2021/04/03 08:19:16;;;;;;;;;;;;;;;7.78;64.33;98840.48;1763534;81;20235;-71
2021/04/03 08:21:46;;;;;;;;;;;;;;;8.05;61.40;98834.30;1738124;81;20263;-72
2021/04/03 08:24:15;;;;;;;;;;;;;;;8.04;62.54;98842.06;1763775;81;20329;-71
2021/04/03 08:26:43;;;;;;;;;;;;;;;7.99;61.96;98845.49;1763354;81;20236;-71
2021/04/03 08:29:29;;;;;;;;;;;;;;;8.00;63.84;98854.31;1763473;81;22267;-71
2021/04/03 08:31:59;;;;;;;;;;;;;;;7.97;59.42;98840.92;1764037;81;20232;-72
2021/04/03 08:34:27;;;;;;;;;;;;;;;7.60;62.29;98840.31;1763512;81;20183;-73
2021/04/03 08:36:54;;;;;;;;;;;;;;;7.59;62.52;98842.69;1763592;81;20259;-71
2021/04/03 08:39:24;;;;;;;;;;;;;;;7.59;64.73;98840.55;1763731;81;20243;-72
2021/04/03 08:41:54;;;;;;;;;;;;;;;7.67;64.11;98838.78;1737952;81;21450;-72
2021/04/03 08:44:27;;;;;;;;;;;;;;;7.82;62.90;98838.92;1763514;81;20256;-72
2021/04/03 08:47:00;;;;;;;;;;;;;;;7.56;59.66;98837.86;1765685;80;20228;-70
2021/04/03 08:49:34;;;;;;;;;;;;;;;7.63;63.64;98827.78;1766237;81;20263;-70
2021/04/03 08:52:02;;;;;;;;;;;;;;;7.89;62.59;98831.51;1766269;81;20231;-70
2021/04/03 08:54:38;;;;;;;;;;;;;;;8.03;62.42;98833.75;1766342;81;21263;-70
2021/04/03 08:57:25;;;;;;;;;;;;;;;7.99;61.13;98835.34;1766068;81;20247;-72
2021/04/03 08:59:58;;;;;;;;;;;;;;;8.02;61.48;98831.61;1766159;81;20156;-71
2021/04/03 09:02:25;;;;;;;;;;;;;;;8.12;61.16;98831.70;1765729;81;20295;-72
2021/04/03 09:04:53;;;;;;;;;;;;;;;8.12;57.43;98834.37;1766213;81;20265;-73
2021/04/03 09:07:33;;;;;;;;;;;;;;;7.97;57.39;98835.58;1765942;81;21413;-72
2021/04/03 09:10:20;;;;;;;;;;;;;;;7.90;57.50;98839.79;1765505;81;20235;-71
2021/04/03 09:12:48;;;;;;;;;;;;;;;7.92;55.51;98841.69;1766129;81;20302;-69
2021/04/03 09:15:25;;;;;;;;;;;;;;;8.11;58.57;98843.45;1766049;81;20531;-70
2021/04/03 09:17:56;;;;;;;;;;;;;;;8.37;56.20;98851.13;1766225;81;20230;-71
2021/04/03 09:20:28;;;;;;;;;;;;;;;8.41;53.85;98850.67;1765980;81;21423;-71
2021/04/03 09:23:04;;;;;;;;;;;;;;;8.11;54.99;98854.15;1765491;81;20179;-71
2021/04/03 09:25:33;;;;;;;;;;;;;;;8.09;55.08;98860.81;1765221;81;20271;-71
2021/04/03 09:28:06;;;;;;;;;;;;;;;7.95;55.12;98853.20;1765353;81;20744;-69
2021/04/03 09:30:37;;;;;;;;;;;;;;;8.51;55.98;98850.73;1766105;81;20275;-70
2021/04/03 09:33:21;;;;;;;;;;;;;;;8.92;51.30;98856.34;1766048;81;21427;-71
2021/04/03 09:35:50;;;;;;;;;;;;;;;8.74;52.13;98860.23;1765887;81;20235;-71
2021/04/03 09:38:28;;;;;;;;;;;;;;;8.60;52.19;98843.84;1765949;81;20171;-70
2021/04/03 09:40:56;;;;;;;;;;;;;;;8.67;49.08;98859.14;1766246;81;20235;-71
2021/04/03 09:43:43;;;;;;;;;;;;;;;8.90;48.89;98865.95;1766048;81;20273;-70
2021/04/03 09:46:10;;;;;;;;;;;;;;;8.91;46.40;98861.41;1735498;81;21442;-71
2021/04/03 09:48:40;;;;;;;;;;;;;;;9.57;48.34;98852.30;1764640;81;20314;-71
2021/04/03 09:51:08;;;;;;;;;;;;;;;10.09;46.93;98856.69;1764489;81;20302;-71
2021/04/03 09:53:38;;;;;;;;;;;;;;;10.28;43.79;98854.83;1764998;81;20243;-71
2021/04/03 09:56:06;;;;;;;;;;;;;;;10.24;42.33;98853.72;1765363;81;20370;-71
2021/04/03 09:58:34;;;;;;;;;;;;;;;10.03;43.42;98844.33;1766000;81;21342;-71
2021/04/03 10:01:03;;;;;;;;;;;;;;;10.29;42.62;98849.75;1712268;81;20239;-71
2021/04/03 10:03:31;;;;;;;;;;;;;;;10.28;37.24;98848.13;1765840;81;20534;-71
2021/04/03 10:06:01;;;;;;;;;;;;;;;10.20;42.68;98832.55;1764632;81;20303;-71
2021/04/03 10:08:30;;;;;;;;;;;;;;;10.35;43.17;98841.16;1764556;81;20323;-72
2021/04/03 10:11:02;;;;;;;;;;;;;;;9.97;42.89;98833.36;1765985;81;21204;-71
2021/04/03 10:13:30;;;;;;;;;;;;;;;10.19;43.38;98834.95;1765745;81;20299;-71
2021/04/03 10:16:00;;;;;;;;;;;;;;;9.99;40.79;98838.43;1766114;81;20343;-71
2021/04/03 10:18:30;;;;;;;;;;;;;;;10.17;43.49;98831.21;1737087;81;20550;-70
2021/04/03 10:20:58;;;;;;;;;;;;;;;10.26;42.59;98836.31;1766376;81;20232;-71
2021/04/03 10:23:26;;;;;;;;;;;;;;;10.65;44.32;98826.88;1766300;81;22282;-70
2021/04/03 10:25:54;;;;;;;;;;;;;;;10.76;43.56;98829.02;1764976;81;20322;-71
2021/04/03 10:28:21;;;;;;;;;;;;;;;10.82;44.51;98828.72;1735099;81;20581;-72
2021/04/03 10:30:50;;;;;;;;;;;;;;;11.20;40.39;98835.85;1764795;81;20291;-72
2021/04/03 10:33:18;;;;;;;;;;;;;;;11.13;40.64;98836.69;1765041;81;20335;-74
2021/04/03 10:35:46;;;;;;;;;;;;;;;11.18;41.99;98847.41;1766018;81;21366;-73
2021/04/03 10:38:17;;;;;;;;;;;;;;;11.01;40.57;98854.45;1766089;81;20271;-74
2021/04/03 10:40:45;;;;;;;;;;;;;;;10.57;40.73;98845.69;1766216;81;20152;-73
2021/04/03 10:43:15;;;;;;;;;;;;;;;10.64;40.02;98847.55;1736117;81;39587;-73
2021/04/03 10:45:42;;;;;;;;;;;;;;;11.06;39.94;98859.00;1766089;80;20272;-72
2021/04/03 10:48:10;;;;;;;;;;;;;;;11.16;40.90;98850.36;1783212;80;21370;-71
2021/04/03 10:50:40;;;;;;;;;;;;;;;11.28;38.04;98859.45;1782522;80;20285;-71
2021/04/03 10:53:08;;;;;;;;;;;;;;;11.23;40.24;98853.30;1783374;80;20128;-71
2021/04/03 10:55:37;;;;;;;;;;;;;;;11.05;38.34;98856.03;1783000;80;20152;-70
2021/04/03 10:58:05;;;;;;;;;;;;;;;11.02;38.07;98850.67;1783257;80;20271;-70
2021/04/03 11:00:33;;;;;;;;;;;;;;;11.68;39.40;98843.39;1783269;80;21333;-71
2021/04/03 11:03:02;;;;;;;;;;;;;;;11.43;39.69;98849.72;1782605;80;20243;-70
2021/04/03 11:05:30;;;;;;;;;;;;;;;11.52;39.61;98848.06;1782872;80;20330;-71
2021/04/03 11:07:58;;;;;;;;;;;;;;;11.23;40.84;98846.04;1782160;80;20266;-71
2021/04/03 11:10:25;;;;;;;;;;;;;;;11.99;38.70;98846.72;1781794;80;20302;-71
2021/04/03 11:12:53;;;;;;;;;;;;;;;11.19;37.76;98851.69;1782569;80;21264;-69
2021/04/03 11:15:22;;;;;;;;;;;;;;;10.37;39.82;98845.17;1782046;80;20246;-70
2021/04/03 11:17:52;;;;;;;;;;;;;;;10.19;39.86;98856.40;1782599;80;20155;-70
2021/04/03 11:20:20;;;;;;;;;;;;;;;10.43;39.77;98840.60;1782844;80;20842;-71
2021/04/03 11:22:48;;;;;;;;;;;;;;;10.81;39.75;98843.23;1783213;80;20250;-71
2021/04/03 11:25:16;;;;;;;;;;;;;;;10.55;40.11;98848.38;1783103;80;21368;-71
2021/04/03 11:27:43;;;;;;;;;;;;;;;9.99;42.12;98838.43;1782800;80;20246;-71
2021/04/03 11:30:14;;;;;;;;;;;;;;;9.88;40.39;98841.11;1782813;80;20552;-72
2021/04/03 11:32:47;;;;;;;;;;;;;;;10.07;41.87;98837.92;1783106;80;20546;-71
2021/04/03 11:35:17;;;;;;;;;;;;;;;10.72;40.25;98839.48;1782594;80;20261;-71
2021/04/03 11:37:46;;;;;;;;;;;;;;;11.23;39.48;98839.88;1783039;80;21208;-70
2021/04/03 11:40:14;;;;;;;;;;;;;;;10.83;38.82;98830.34;1782755;80;20168;-70
2021/04/03 11:42:42;;;;;;;;;;;;;;;10.46;39.67;98838.20;1783264;80;20258;-70
2021/04/03 11:45:12;;;;;;;;;;;;;;;9.88;41.69;98830.92;1759137;80;20294;-70
2021/04/03 11:47:40;;;;;;;;;;;;;;;9.51;42.40;98837.83;1773051;80;20358;-70
2021/04/03 11:50:09;;;;;;;;;;;;;;;9.96;42.88;98838.97;1783509;80;21202;-70
2021/04/03 11:52:38;;;;;;;;;;;;;;;9.84;42.55;98840.02;1783008;80;20263;-70
2021/04/03 11:55:06;;;;;;;;;;;;;;;10.30;40.59;98836.05;1782183;80;20242;-70
2021/04/03 11:57:35;;;;;;;;;;;;;;;10.97;41.39;98841.83;1782845;80;20348;-69
2021/04/03 12:00:07;;;;;;;;;;;;;;;10.77;38.76;98841.36;1782502;80;20238;-71
2021/04/03 12:02:39;;;;;;;;;;;;;;;9.98;41.05;98840.31;1783137;80;21262;-71
2021/04/03 12:05:07;;;;;;;;;;;;;;;9.73;40.04;98834.94;1783106;80;20235;-71
2021/04/03 12:07:38;;;;;;;;;;;;;;;9.95;42.62;98833.36;1783271;80;20239;-71
2021/04/03 12:10:09;;;;;;;;;;;;;;;10.12;40.46;98835.23;1782796;80;20258;-71
2021/04/03 12:12:39;;;;;;;;;;;;;;;9.78;41.04;98835.73;1783159;80;20726;-72
2021/04/03 12:15:13;;;;;;;;;;;;;;;9.56;42.18;98831.95;1783280;80;21660;-71
2021/04/03 12:17:44;;;;;;;;;;;;;;;8.92;42.13;98833.05;1782479;80;20270;-70
2021/04/03 12:20:16;;;;;;;;;;;;;;;8.88;44.14;98829.81;1782641;80;20298;-71
2021/04/03 12:22:45;;;;;;;;;;;;;;;8.97;44.11;98834.95;1782900;80;20306;-70
2021/04/03 12:25:16;;;;;;;;;;;;;;;9.04;44.09;98837.38;1782409;80;20239;-70
2021/04/03 12:27:43;;;;;;;;;;;;;;;9.93;42.06;98839.52;1782788;80;21365;-72
2021/04/03 12:30:12;;;;;;;;;;;;;;;10.40;40.54;98840.61;1782468;80;20155;-70
2021/04/03 12:32:41;;;;;;;;;;;;;;;10.38;38.61;98833.36;1783095;80;20290;-71
2021/04/03 12:35:10;;;;;;;;;;;;;;;10.08;41.03;98837.63;1783079;80;20155;-71
2021/04/03 12:37:38;;;;;;;;;;;;;;;9.37;40.65;98827.59;1782985;80;20531;-70
2021/04/03 12:40:06;;;;;;;;;;;;;;;9.16;42.31;98832.61;1782202;80;21142;-71
2021/04/03 12:42:34;;;;;;;;;;;;;;;9.13;42.07;98829.13;1757652;80;20337;-72
2021/04/03 12:45:02;;;;;;;;;;;;;;;9.13;42.36;98827.78;1781702;80;20565;-71
2021/04/03 12:47:31;;;;;;;;;;;;;;;9.60;42.49;98826.84;1781576;80;20294;-71
2021/04/03 12:49:59;;;;;;;;;;;;;;;10.03;41.26;98829.59;1767002;80;20231;-71
2021/04/03 12:52:29;;;;;;;;;;;;;;;10.71;40.17;98837.34;1765537;81;21187;-70
2021/04/03 12:54:57;;;;;;;;;;;;;;;11.24;38.00;98833.41;1765805;81;20211;-70
2021/04/03 12:57:25;;;;;;;;;;;;;;;11.24;37.32;98821.31;1766337;81;20630;-70
2021/04/03 12:59:53;;;;;;;;;;;;;;;11.52;36.99;98828.70;1766113;81;20283;-70
2021/04/03 13:02:20;;;;;;;;;;;;;;;11.38;37.07;98827.70;1766048;81;20287;-70
2021/04/03 13:04:48;;;;;;;;;;;;;;;11.40;36.87;98820.72;1765800;81;22391;-69